Time;durP1;ratioP1;P1;durP2;ratioP2;P2;SDS_P1;SDS_P2;PMS_P1;PMS_P2;Temp;Humidity;BMP_temperature;BMP_pressure;BME280_temperature;BME280_humidity;BME280_pressure;Samples;Min_cycle;Max_cycle;Signal;HPM_P1;HPM_P2
2022/12/12 00:02:21;;;;;;;;;;;;;;;;;;5029291;28;20309;-72
2022/12/12 00:04:46;;;;;;;;;;;;;;;;;;5028758;28;19913;-72
2022/12/12 00:07:12;;;;;;;;;;;;;;;;;;5029233;28;19913;-72
2022/12/12 00:09:38;;;;;;;;;;;;;;;;;;5028827;28;19920;-72
2022/12/12 00:12:03;;;;;;;;;;;;;;;;;;5011502;28;21764;-72
2022/12/12 00:14:29;;;;;;;;;;;;;;;;;;5026059;28;19919;-73
2022/12/12 00:16:55;;;;;;;;;;;;;;;;;;5029144;28;20003;-70
2022/12/12 00:19:20;;;;;;;;;;;;;;;;;;5011257;28;19913;-72
2022/12/12 00:21:46;;;;;;;;;;;;;;;;;;5027414;28;19929;-69
2022/12/12 00:24:12;;;;;;;;;;;;;;;;;;5027185;28;19913;-70
2022/12/12 00:26:37;;;;;;;;;;;;;;;;;;5027841;28;19955;-71
2022/12/12 00:29:03;;;;;;;;;;;;;;;;;;5009815;28;20474;-71
2022/12/12 00:31:29;;;;;;;;;;;;;;;;;;5009151;28;19912;-70
2022/12/12 00:33:55;;;;;;;;;;;;;;;;;;5028078;28;20395;-71
2022/12/12 00:36:20;;;;;;;;;;;;;;;;;;5024617;28;19920;-72
2022/12/12 00:38:46;;;;;;;;;;;;;;;;;;5025816;28;19913;-71
2022/12/12 00:41:11;;;;;;;;;;;;;;;;;;5028990;28;20262;-71
2022/12/12 00:43:37;;;;;;;;;;;;;;;;;;5027335;28;19917;-70
2022/12/12 00:46:03;;;;;;;;;;;;;;;;;;4994804;28;19913;-72
2022/12/12 00:48:28;;;;;;;;;;;;;;;;;;5028868;28;19913;-73
2022/12/12 00:50:54;;;;;;;;;;;;;;;;;;5027285;28;20508;-72
2022/12/12 00:53:19;;;;;;;;;;;;;;;;;;5024812;28;19913;-72
2022/12/12 00:55:45;;;;;;;;;;;;;;;;;;5025308;28;20491;-71
2022/12/12 00:58:11;;;;;;;;;;;;;;;;;;5028670;28;19953;-72
2022/12/12 01:00:39;;;;;;;;;;;;;;;;;;5028282;28;19924;-73
2022/12/12 01:03:04;;;;;;;;;;;;;;;;;;5028607;28;19952;-73
2022/12/12 01:05:30;;;;;;;;;;;;;;;;;;5028469;28;19970;-69
2022/12/12 01:07:56;;;;;;;;;;;;;;;;;;5028476;28;19920;-71
2022/12/12 01:10:21;;;;;;;;;;;;;;;;;;5028763;28;19913;-71
2022/12/12 01:12:47;;;;;;;;;;;;;;;;;;5028688;28;19912;-71
2022/12/12 01:15:13;;;;;;;;;;;;;;;;;;5028513;28;19917;-70
2022/12/12 01:17:38;;;;;;;;;;;;;;;;;;5028244;28;19913;-71
2022/12/12 01:20:04;;;;;;;;;;;;;;;;;;5028463;28;19912;-71
2022/12/12 01:22:30;;;;;;;;;;;;;;;;;;5028363;28;19928;-73
2022/12/12 01:24:56;;;;;;;;;;;;;;;;;;5010546;28;19912;-71
2022/12/12 01:27:21;;;;;;;;;;;;;;;;;;5028424;28;19912;-72
2022/12/12 01:29:47;;;;;;;;;;;;;;;;;;5010248;28;19971;-71
2022/12/12 01:32:13;;;;;;;;;;;;;;;;;;5028418;28;19944;-70
2022/12/12 01:34:38;;;;;;;;;;;;;;;;;;5010395;28;19921;-71
2022/12/12 01:37:04;;;;;;;;;;;;;;;;;;5020833;28;19940;-71
2022/12/12 01:39:30;;;;;;;;;;;;;;;;;;5008591;28;20406;-70
2022/12/12 01:41:55;;;;;;;;;;;;;;;;;;5008418;28;20020;-73
2022/12/12 01:44:21;;;;;;;;;;;;;;;;;;5008654;28;19921;-71
2022/12/12 01:46:47;;;;;;;;;;;;;;;;;;5008282;28;20492;-71
2022/12/12 01:49:13;;;;;;;;;;;;;;;;;;5010370;28;19917;-72
2022/12/12 01:51:38;;;;;;;;;;;;;;;;;;5012001;28;19913;-71
2022/12/12 01:54:04;;;;;;;;;;;;;;;;;;5012310;28;19913;-72
2022/12/12 01:56:30;;;;;;;;;;;;;;;;;;5027243;28;19924;-70
2022/12/12 01:58:55;;;;;;;;;;;;;;;;;;5031670;28;19912;-71
2022/12/12 02:01:21;;;;;;;;;;;;;;;;;;5014180;28;20358;-71
2022/12/12 02:03:47;;;;;;;;;;;;;;;;;;5031511;28;19913;-71
2022/12/12 02:06:12;;;;;;;;;;;;;;;;;;5013961;28;19913;-71
2022/12/12 02:08:38;;;;;;;;;;;;;;;;;;5031606;28;19974;-71
2022/12/12 02:11:03;;;;;;;;;;;;;;;;;;5031680;28;20011;-72
2022/12/12 02:13:30;;;;;;;;;;;;;;;;;;5031693;28;19920;-72
2022/12/12 02:15:56;;;;;;;;;;;;;;;;;;5031155;28;19921;-72
2022/12/12 02:18:22;;;;;;;;;;;;;;;;;;5031607;28;19913;-72
2022/12/12 02:20:47;;;;;;;;;;;;;;;;;;4995023;28;19999;-73
2022/12/12 02:23:13;;;;;;;;;;;;;;;;;;5003580;28;19971;-72
2022/12/12 02:25:39;;;;;;;;;;;;;;;;;;5011475;28;19913;-71
2022/12/12 02:28:05;;;;;;;;;;;;;;;;;;5011935;28;20353;-71
2022/12/12 02:30:31;;;;;;;;;;;;;;;;;;4994486;28;19914;-71
2022/12/12 02:32:56;;;;;;;;;;;;;;;;;;5011848;28;19967;-71
2022/12/12 02:35:22;;;;;;;;;;;;;;;;;;5013632;28;19921;-71
2022/12/12 02:37:48;;;;;;;;;;;;;;;;;;5025401;28;19913;-72
2022/12/12 02:40:13;;;;;;;;;;;;;;;;;;5033792;28;19920;-71
2022/12/12 02:42:39;;;;;;;;;;;;;;;;;;5031978;28;19936;-71
2022/12/12 02:45:05;;;;;;;;;;;;;;;;;;5031026;28;19917;-72
2022/12/12 02:47:30;;;;;;;;;;;;;;;;;;5020698;28;19909;-71
2022/12/12 02:49:56;;;;;;;;;;;;;;;;;;5011041;28;19917;-73
2022/12/12 02:52:21;;;;;;;;;;;;;;;;;;5011245;28;19944;-73
2022/12/12 02:54:47;;;;;;;;;;;;;;;;;;4993047;28;19921;-71
2022/12/12 02:57:13;;;;;;;;;;;;;;;;;;5011094;28;20341;-72
2022/12/12 02:59:39;;;;;;;;;;;;;;;;;;5010376;28;20507;-72
2022/12/12 03:02:04;;;;;;;;;;;;;;;;;;5022574;28;19939;-70
2022/12/12 03:10:00;;;;;;;;;;;;;;;;;;5010925;28;19913;-71
2022/12/12 03:12:26;;;;;;;;;;;;;;;;;;5027249;28;20286;-70
2022/12/12 03:14:52;;;;;;;;;;;;;;;;;;5030372;28;20272;-74
2022/12/12 03:17:17;;;;;;;;;;;;;;;;;;5030774;28;19913;-73
2022/12/12 03:19:43;;;;;;;;;;;;;;;;;;5030054;28;19955;-72
2022/12/12 03:22:09;;;;;;;;;;;;;;;;;;5025513;28;20652;-73
2022/12/12 03:24:34;;;;;;;;;;;;;;;;;;5030543;28;20012;-73
2022/12/12 03:27:00;;;;;;;;;;;;;;;;;;5029853;28;20051;-71
2022/12/12 03:29:26;;;;;;;;;;;;;;;;;;5028853;28;19924;-73
2022/12/12 03:31:51;;;;;;;;;;;;;;;;;;5007639;28;19913;-73
2022/12/12 03:34:17;;;;;;;;;;;;;;;;;;5030854;28;19920;-73
2022/12/12 03:36:42;;;;;;;;;;;;;;;;;;5012868;28;19921;-75
2022/12/12 03:39:08;;;;;;;;;;;;;;;;;;5031068;28;19913;-72
2022/12/12 03:41:34;;;;;;;;;;;;;;;;;;5029158;28;20329;-73
2022/12/12 03:43:59;;;;;;;;;;;;;;;;;;5029660;28;19920;-73
2022/12/12 03:46:25;;;;;;;;;;;;;;;;;;5029911;28;19923;-74
2022/12/12 03:48:51;;;;;;;;;;;;;;;;;;5029649;28;19920;-73
2022/12/12 03:51:17;;;;;;;;;;;;;;;;;;5029864;28;20601;-72
2022/12/12 03:53:42;;;;;;;;;;;;;;;;;;5012131;28;19967;-73
2022/12/12 03:56:08;;;;;;;;;;;;;;;;;;5018429;28;19921;-73
2022/12/12 03:58:34;;;;;;;;;;;;;;;;;;5022093;28;19920;-72
2022/12/12 04:01:00;;;;;;;;;;;;;;;;;;5027164;28;19948;-74
2022/12/12 04:03:25;;;;;;;;;;;;;;;;;;5010210;28;19962;-74
2022/12/12 04:08:36;;;;;;;;;;;;;;;;;;5012734;28;19952;-73
2022/12/12 04:13:46;;;;;;;;;;;;;;;;;;5009510;28;19920;-73
2022/12/12 04:16:12;;;;;;;;;;;;;;;;;;4991829;28;19921;-74
2022/12/12 04:18:37;;;;;;;;;;;;;;;;;;5009642;28;19914;-71
2022/12/12 04:23:48;;;;;;;;;;;;;;;;;;5029030;28;20566;-72
2022/12/12 04:28:58;;;;;;;;;;;;;;;;;;5025941;28;19948;-73
2022/12/12 04:31:23;;;;;;;;;;;;;;;;;;5004398;28;20424;-73
2022/12/12 04:33:49;;;;;;;;;;;;;;;;;;5027016;28;19960;-71
2022/12/12 04:36:14;;;;;;;;;;;;;;;;;;5024799;28;20416;-73
2022/12/12 04:38:40;;;;;;;;;;;;;;;;;;5025252;28;19932;-74
2022/12/12 04:41:06;;;;;;;;;;;;;;;;;;5024117;28;19948;-73
2022/12/12 04:43:32;;;;;;;;;;;;;;;;;;5026574;28;19987;-72
2022/12/12 04:45:57;;;;;;;;;;;;;;;;;;5027495;28;19984;-72
2022/12/12 04:48:23;;;;;;;;;;;;;;;;;;5028777;28;19916;-72
2022/12/12 04:50:49;;;;;;;;;;;;;;;;;;5010587;28;19913;-72
2022/12/12 04:53:15;;;;;;;;;;;;;;;;;;5028797;28;20356;-72
2022/12/12 04:55:40;;;;;;;;;;;;;;;;;;5028491;28;20451;-71
2022/12/12 04:58:06;;;;;;;;;;;;;;;;;;5028447;28;19909;-72
2022/12/12 05:00:32;;;;;;;;;;;;;;;;;;5010744;28;20664;-71
2022/12/12 05:02:58;;;;;;;;;;;;;;;;;;5010909;28;19951;-72
2022/12/12 05:05:23;;;;;;;;;;;;;;;;;;5028805;28;20262;-71
2022/12/12 05:07:49;;;;;;;;;;;;;;;;;;5028282;28;19920;-72
2022/12/12 05:10:14;;;;;;;;;;;;;;;;;;5028506;28;19920;-73
2022/12/12 05:12:40;;;;;;;;;;;;;;;;;;5011250;28;20026;-73
2022/12/12 05:15:06;;;;;;;;;;;;;;;;;;5028254;28;20257;-73
2022/12/12 05:17:31;;;;;;;;;;;;;;;;;;5028872;28;20362;-73
2022/12/12 05:19:57;;;;;;;;;;;;;;;;;;5010853;28;20408;-71
2022/12/12 05:22:23;;;;;;;;;;;;;;;;;;5028437;28;19928;-73
2022/12/12 05:24:49;;;;;;;;;;;;;;;;;;5030985;28;20057;-73
2022/12/12 05:27:14;;;;;;;;;;;;;;;;;;5029278;28;19920;-74
2022/12/12 05:29:40;;;;;;;;;;;;;;;;;;5029768;28;20055;-75
2022/12/12 05:32:06;;;;;;;;;;;;;;;;;;5029018;28;20000;-75
2022/12/12 05:34:31;;;;;;;;;;;;;;;;;;5032488;28;19924;-74
2022/12/12 05:36:57;;;;;;;;;;;;;;;;;;5032089;28;19967;-73
2022/12/12 05:39:23;;;;;;;;;;;;;;;;;;5014678;28;19917;-74
2022/12/12 05:41:48;;;;;;;;;;;;;;;;;;5014467;28;19917;-74
2022/12/12 05:44:14;;;;;;;;;;;;;;;;;;5020804;28;20397;-74
2022/12/12 05:46:39;;;;;;;;;;;;;;;;;;5011366;28;19913;-75
2022/12/12 05:49:05;;;;;;;;;;;;;;;;;;4991418;28;19947;-77
2022/12/12 05:51:31;;;;;;;;;;;;;;;;;;4998325;28;19917;-76
2022/12/12 05:53:56;;;;;;;;;;;;;;;;;;5022830;28;19967;-77
2022/12/12 05:56:22;;;;;;;;;;;;;;;;;;5026336;28;19929;-76
2022/12/12 05:58:48;;;;;;;;;;;;;;;;;;5008134;28;19959;-75
2022/12/12 06:01:14;;;;;;;;;;;;;;;;;;5030990;28;20443;-75
2022/12/12 06:03:41;;;;;;;;;;;;;;;;;;5007907;28;19987;-75
2022/12/12 06:06:07;;;;;;;;;;;;;;;;;;4992505;28;20374;-75
2022/12/12 06:08:32;;;;;;;;;;;;;;;;;;5011266;28;19967;-74
2022/12/12 06:10:58;;;;;;;;;;;;;;;;;;5010690;28;19921;-76
2022/12/12 06:13:24;;;;;;;;;;;;;;;;;;5010807;28;19959;-77
2022/12/12 06:15:50;;;;;;;;;;;;;;;;;;5009299;28;19921;-77
2022/12/12 06:18:15;;;;;;;;;;;;;;;;;;5009558;28;19913;-76
2022/12/12 06:20:42;;;;;;;;;;;;;;;;;;5010892;28;19922;-74
2022/12/12 06:23:08;;;;;;;;;;;;;;;;;;5010882;28;19940;-75
2022/12/12 06:25:33;;;;;;;;;;;;;;;;;;5020461;28;19913;-75
2022/12/12 06:27:59;;;;;;;;;;;;;;;;;;5024916;28;20325;-73
2022/12/12 06:30:25;;;;;;;;;;;;;;;;;;5010474;28;20379;-74
2022/12/12 06:32:50;;;;;;;;;;;;;;;;;;5010610;28;19913;-74
2022/12/12 06:35:16;;;;;;;;;;;;;;;;;;5010449;28;20027;-76
2022/12/12 06:37:47;;;;;;;;;;;;;;;;;;5010789;28;19919;-75
2022/12/12 06:40:12;;;;;;;;;;;;;;;;;;4997577;28;20139;-75
2022/12/12 06:42:38;;;;;;;;;;;;;;;;;;5010224;28;20475;-73
2022/12/12 06:45:04;;;;;;;;;;;;;;;;;;5013358;28;19936;-76
2022/12/12 06:47:33;;;;;;;;;;;;;;;;;;5007721;28;19913;-75
2022/12/12 06:49:58;;;;;;;;;;;;;;;;;;5029674;28;20368;-76
2022/12/12 06:52:24;;;;;;;;;;;;;;;;;;5030102;28;20011;-75
2022/12/12 06:54:49;;;;;;;;;;;;;;;;;;5010653;28;19912;-75
2022/12/12 06:57:15;;;;;;;;;;;;;;;;;;5028953;28;19913;-75
2022/12/12 06:59:41;;;;;;;;;;;;;;;;;;5029623;28;19916;-75
2022/12/12 07:02:06;;;;;;;;;;;;;;;;;;5026489;28;20385;-74
2022/12/12 07:04:32;;;;;;;;;;;;;;;;;;5024940;28;20432;-74
2022/12/12 07:06:57;;;;;;;;;;;;;;;;;;4998198;28;19913;-75
2022/12/12 07:09:23;;;;;;;;;;;;;;;;;;4992559;28;19913;-74
2022/12/12 07:11:49;;;;;;;;;;;;;;;;;;4991790;28;19920;-76
2022/12/12 07:14:14;;;;;;;;;;;;;;;;;;5009846;28;19955;-74
2022/12/12 07:16:43;;;;;;;;;;;;;;;;;;5009721;28;20286;-75
2022/12/12 07:19:09;;;;;;;;;;;;;;;;;;4992303;28;20484;-74
2022/12/12 07:21:35;;;;;;;;;;;;;;;;;;5009901;28;19952;-74
2022/12/12 07:24:00;;;;;;;;;;;;;;;;;;5009512;28;19913;-79
2022/12/12 07:26:26;;;;;;;;;;;;;;;;;;5009614;28;20000;-78
2022/12/12 07:28:52;;;;;;;;;;;;;;;;;;5010081;28;19921;-75
2022/12/12 07:31:17;;;;;;;;;;;;;;;;;;5011865;28;19914;-77
2022/12/12 07:33:43;;;;;;;;;;;;;;;;;;5026388;28;19909;-77
2022/12/12 07:36:09;;;;;;;;;;;;;;;;;;5027758;28;19952;-75
2022/12/12 07:38:35;;;;;;;;;;;;;;;;;;5043494;28;19924;-77
2022/12/12 07:41:00;;;;;;;;;;;;;;;;;;5019377;28;19944;-76
2022/12/12 07:43:30;;;;;;;;;;;;;;;;;;5009993;28;19924;-78
2022/12/12 07:45:56;;;;;;;;;;;;;;;;;;4993236;28;19953;-79
2022/12/12 07:48:21;;;;;;;;;;;;;;;;;;5026289;28;19963;-79
2022/12/12 07:50:47;;;;;;;;;;;;;;;;;;5029937;28;19935;-78
2022/12/12 07:53:13;;;;;;;;;;;;;;;;;;5028317;28;20376;-79
2022/12/12 07:55:39;;;;;;;;;;;;;;;;;;5029010;28;19921;-78
2022/12/12 07:58:04;;;;;;;;;;;;;;;;;;5029040;28;19917;-78
2022/12/12 08:00:30;;;;;;;;;;;;;;;;;;5029315;28;19948;-76
2022/12/12 08:02:56;;;;;;;;;;;;;;;;;;5013306;28;19913;-78
2022/12/12 08:05:22;;;;;;;;;;;;;;;;;;4991992;28;19913;-77
2022/12/12 08:07:48;;;;;;;;;;;;;;;;;;4991659;28;19909;-77
2022/12/12 08:10:14;;;;;;;;;;;;;;;;;;5008054;28;20417;-77
2022/12/12 08:12:39;;;;;;;;;;;;;;;;;;5009336;28;19921;-76
2022/12/12 08:15:05;;;;;;;;;;;;;;;;;;5001462;28;19925;-78
2022/12/12 08:17:31;;;;;;;;;;;;;;;;;;5028765;28;19951;-78
2022/12/12 08:19:56;;;;;;;;;;;;;;;;;;5028582;28;20553;-78
2022/12/12 08:22:22;;;;;;;;;;;;;;;;;;5028640;28;19920;-78
2022/12/12 08:24:47;;;;;;;;;;;;;;;;;;5028711;28;20156;-75
2022/12/12 08:27:13;;;;;;;;;;;;;;;;;;5028188;28;19964;-77
2022/12/12 08:29:39;;;;;;;;;;;;;;;;;;5028684;28;19920;-75
2022/12/12 08:32:05;;;;;;;;;;;;;;;;;;5010637;28;19917;-77
2022/12/12 08:34:31;;;;;;;;;;;;;;;;;;5026182;28;19921;-75
2022/12/12 08:36:56;;;;;;;;;;;;;;;;;;5022587;28;19920;-75
2022/12/12 08:39:22;;;;;;;;;;;;;;;;;;5016784;28;19920;-75
2022/12/12 08:41:48;;;;;;;;;;;;;;;;;;5028252;28;20432;-74
2022/12/12 08:44:13;;;;;;;;;;;;;;;;;;5008732;28;20003;-76
2022/12/12 08:46:40;;;;;;;;;;;;;;;;;;5010299;28;20313;-76
2022/12/12 08:49:05;;;;;;;;;;;;;;;;;;5021023;28;19917;-75
2022/12/12 08:51:33;;;;;;;;;;;;;;;;;;5010413;28;19920;-78
2022/12/12 08:53:58;;;;;;;;;;;;;;;;;;5026732;28;20416;-76
2022/12/12 08:56:24;;;;;;;;;;;;;;;;;;5026990;28;19972;-76
2022/12/12 08:58:50;;;;;;;;;;;;;;;;;;5027226;28;19912;-77
2022/12/12 09:01:16;;;;;;;;;;;;;;;;;;5010672;28;19913;-77
2022/12/12 09:03:41;;;;;;;;;;;;;;;;;;5027884;28;20027;-77
2022/12/12 09:06:07;;;;;;;;;;;;;;;;;;5028025;28;19913;-74
2022/12/12 09:08:33;;;;;;;;;;;;;;;;;;5028308;28;19975;-76
2022/12/12 09:10:59;;;;;;;;;;;;;;;;;;5009385;28;20352;-77
2022/12/12 09:13:24;;;;;;;;;;;;;;;;;;5010497;28;19913;-76
2022/12/12 09:15:50;;;;;;;;;;;;;;;;;;5027919;28;20423;-78
2022/12/12 09:18:16;;;;;;;;;;;;;;;;;;5020699;28;19959;-78
2022/12/12 09:20:43;;;;;;;;;;;;;;;;;;5007842;28;19940;-77
2022/12/12 09:23:09;;;;;;;;;;;;;;;;;;4990339;28;19972;-77
2022/12/12 09:25:35;;;;;;;;;;;;;;;;;;5008366;28;19917;-77
2022/12/12 09:28:01;;;;;;;;;;;;;;;;;;5023856;28;20431;-77
2022/12/12 09:30:27;;;;;;;;;;;;;;;;;;5008591;28;19920;-77
2022/12/12 09:32:54;;;;;;;;;;;;;;;;;;5005612;28;20024;-77
2022/12/12 09:35:19;;;;;;;;;;;;;;;;;;5024163;28;20428;-78
2022/12/12 09:37:45;;;;;;;;;;;;;;;;;;5027229;28;19917;-78
2022/12/12 09:40:10;;;;;;;;;;;;;;;;;;5011868;28;20271;-78
2022/12/12 09:42:36;;;;;;;;;;;;;;;;;;4990296;28;20407;-78
2022/12/12 09:45:02;;;;;;;;;;;;;;;;;;5007526;28;19913;-78
2022/12/12 09:47:27;;;;;;;;;;;;;;;;;;5007059;28;19952;-78
2022/12/12 09:49:53;;;;;;;;;;;;;;;;;;5007809;28;20458;-78
2022/12/12 09:52:19;;;;;;;;;;;;;;;;;;5009472;28;20459;-78
2022/12/12 09:54:45;;;;;;;;;;;;;;;;;;5007573;28;19909;-79
2022/12/12 09:57:10;;;;;;;;;;;;;;;;;;5007614;28;19920;-77
2022/12/12 09:59:36;;;;;;;;;;;;;;;;;;4990018;28;19914;-78
2022/12/12 10:02:02;;;;;;;;;;;;;;;;;;5007419;28;19920;-78
2022/12/12 10:04:28;;;;;;;;;;;;;;;;;;4997692;28;20472;-79
2022/12/12 10:06:54;;;;;;;;;;;;;;;;;;5006671;28;19917;-78
2022/12/12 10:09:19;;;;;;;;;;;;;;;;;;4990584;28;19913;-77
2022/12/12 10:11:54;;;;;;;;;;;;;;;;;;5011704;28;19913;-78
2022/12/12 10:14:20;;;;;;;;;;;;;;;;;;5013103;28;20339;-78
2022/12/12 10:16:46;;;;;;;;;;;;;;;;;;5030996;28;20015;-78
2022/12/12 10:19:11;;;;;;;;;;;;;;;;;;5030708;28;20055;-79
2022/12/12 10:21:39;;;;;;;;;;;;;;;;;;5030745;28;19921;-78
2022/12/12 10:24:05;;;;;;;;;;;;;;;;;;5012836;28;19913;-79
2022/12/12 10:26:31;;;;;;;;;;;;;;;;;;5030705;28;20330;-78
2022/12/12 10:28:57;;;;;;;;;;;;;;;;;;5030983;28;20403;-79
2022/12/12 10:31:22;;;;;;;;;;;;;;;;;;5012716;28;19998;-79
2022/12/12 10:33:48;;;;;;;;;;;;;;;;;;5027576;28;20393;-78
2022/12/12 10:36:14;;;;;;;;;;;;;;;;;;4995549;28;19943;-79
2022/12/12 10:38:40;;;;;;;;;;;;;;;;;;5028428;28;19913;-79
2022/12/12 10:41:05;;;;;;;;;;;;;;;;;;5013021;28;20441;-78
2022/12/12 10:43:32;;;;;;;;;;;;;;;;;;4994750;28;19917;-79
2022/12/12 10:45:57;;;;;;;;;;;;;;;;;;5012765;28;19913;-79
2022/12/12 10:48:23;;;;;;;;;;;;;;;;;;4998479;28;20532;-78
2022/12/12 10:50:49;;;;;;;;;;;;;;;;;;5030837;28;19913;-78
2022/12/12 10:53:15;;;;;;;;;;;;;;;;;;5012172;28;19913;-78
2022/12/12 10:55:40;;;;;;;;;;;;;;;;;;5020510;28;19921;-79
2022/12/12 10:58:06;;;;;;;;;;;;;;;;;;5010825;28;19914;-79
2022/12/12 11:00:32;;;;;;;;;;;;;;;;;;5009410;28;19924;-77
2022/12/12 11:02:58;;;;;;;;;;;;;;;;;;5025735;28;19913;-78
2022/12/12 11:05:24;;;;;;;;;;;;;;;;;;5030032;28;19955;-78
2022/12/12 11:07:49;;;;;;;;;;;;;;;;;;5030210;28;20529;-78
2022/12/12 11:10:15;;;;;;;;;;;;;;;;;;5029942;28;19967;-78
2022/12/12 11:12:41;;;;;;;;;;;;;;;;;;5012291;28;19952;-77
2022/12/12 11:15:06;;;;;;;;;;;;;;;;;;5029800;28;19927;-79
2022/12/12 11:17:32;;;;;;;;;;;;;;;;;;5029091;28;19920;-78
2022/12/12 11:19:58;;;;;;;;;;;;;;;;;;5012220;28;19912;-78
2022/12/12 11:22:23;;;;;;;;;;;;;;;;;;5029257;28;19927;-78
2022/12/12 11:24:49;;;;;;;;;;;;;;;;;;5030110;28;20396;-78
2022/12/12 11:27:15;;;;;;;;;;;;;;;;;;5029376;28;19955;-78
2022/12/12 11:29:40;;;;;;;;;;;;;;;;;;5011965;28;19955;-78
2022/12/12 11:32:06;;;;;;;;;;;;;;;;;;5029614;28;20384;-77
2022/12/12 11:34:32;;;;;;;;;;;;;;;;;;5029947;28;19920;-79
2022/12/12 11:36:57;;;;;;;;;;;;;;;;;;5029957;28;19917;-79
2022/12/12 11:39:23;;;;;;;;;;;;;;;;;;5002797;28;19967;-78
2022/12/12 11:41:48;;;;;;;;;;;;;;;;;;5007170;28;19913;-77
2022/12/12 11:44:14;;;;;;;;;;;;;;;;;;5027990;28;20304;-78
2022/12/12 11:46:40;;;;;;;;;;;;;;;;;;5009748;28;20378;-78
2022/12/12 11:49:05;;;;;;;;;;;;;;;;;;5009560;28;19917;-78
2022/12/12 11:51:31;;;;;;;;;;;;;;;;;;5010745;28;20496;-79
2022/12/12 11:53:57;;;;;;;;;;;;;;;;;;5009284;28;19944;-79
2022/12/12 11:56:22;;;;;;;;;;;;;;;;;;4991457;28;20417;-78
2022/12/12 11:58:48;;;;;;;;;;;;;;;;;;4992320;28;20701;-75
2022/12/12 12:01:14;;;;;;;;;;;;;;;;;;5008227;28;19913;-75
2022/12/12 12:03:39;;;;;;;;;;;;;;;;;;5009949;28;19913;-74
2022/12/12 12:06:05;;;;;;;;;;;;;;;;;;5029917;28;20392;-75
2022/12/12 12:08:31;;;;;;;;;;;;;;;;;;5028961;28;19913;-74
2022/12/12 12:10:57;;;;;;;;;;;;;;;;;;5028787;28;20282;-76
2022/12/12 12:13:23;;;;;;;;;;;;;;;;;;5028785;28;20313;-76
2022/12/12 12:15:49;;;;;;;;;;;;;;;;;;5028832;28;19921;-78
2022/12/12 12:18:14;;;;;;;;;;;;;;;;;;5027060;28;19917;-75
2022/12/12 12:20:40;;;;;;;;;;;;;;;;;;5011037;28;20385;-74
2022/12/12 12:23:06;;;;;;;;;;;;;;;;;;5028243;28;20616;-75
2022/12/12 12:25:32;;;;;;;;;;;;;;;;;;5010802;28;20360;-76
2022/12/12 12:27:57;;;;;;;;;;;;;;;;;;5028638;28;19978;-75
2022/12/12 12:30:23;;;;;;;;;;;;;;;;;;5028555;28;19913;-77
2022/12/12 12:32:49;;;;;;;;;;;;;;;;;;5028597;28;19913;-76
2022/12/12 12:35:15;;;;;;;;;;;;;;;;;;4994128;28;19921;-75
2022/12/12 12:37:40;;;;;;;;;;;;;;;;;;5028611;28;19912;-74
2022/12/12 12:40:06;;;;;;;;;;;;;;;;;;5028281;28;19996;-77
2022/12/12 12:42:32;;;;;;;;;;;;;;;;;;5029067;28;19913;-76
2022/12/12 12:44:57;;;;;;;;;;;;;;;;;;5007414;28;20451;-78
2022/12/12 12:47:23;;;;;;;;;;;;;;;;;;5002262;28;20054;-77
2022/12/12 12:49:49;;;;;;;;;;;;;;;;;;5032686;28;19920;-75
2022/12/12 12:52:14;;;;;;;;;;;;;;;;;;5017875;28;20420;-75
2022/12/12 12:54:40;;;;;;;;;;;;;;;;;;5035238;28;19917;-75
2022/12/12 12:57:06;;;;;;;;;;;;;;;;;;4997946;28;19929;-75
2022/12/12 12:59:31;;;;;;;;;;;;;;;;;;5016588;28;21049;-76
2022/12/12 13:01:57;;;;;;;;;;;;;;;;;;5019804;28;19913;-75
2022/12/12 13:04:24;;;;;;;;;;;;;;;;;;5010360;28;19919;-75
2022/12/12 13:06:49;;;;;;;;;;;;;;;;;;5028594;28;19917;-75
2022/12/12 13:09:15;;;;;;;;;;;;;;;;;;5009458;28;19913;-74
2022/12/12 13:11:41;;;;;;;;;;;;;;;;;;5027936;28;19960;-74
2022/12/12 13:14:06;;;;;;;;;;;;;;;;;;5019536;28;20481;-76
2022/12/12 13:16:32;;;;;;;;;;;;;;;;;;4991141;28;20353;-76
2022/12/12 13:18:58;;;;;;;;;;;;;;;;;;4979551;28;20004;-76
2022/12/12 13:21:23;;;;;;;;;;;;;;;;;;5027940;28;19921;-75
2022/12/12 13:23:49;;;;;;;;;;;;;;;;;;5027072;28;20579;-75
2022/12/12 13:26:18;;;;;;;;;;;;;;;;;;4989939;28;19913;-74
2022/12/12 13:28:43;;;;;;;;;;;;;;;;;;5027943;28;19939;-74
2022/12/12 13:31:09;;;;;;;;;;;;;;;;;;5027508;28;19956;-75
2022/12/12 13:33:35;;;;;;;;;;;;;;;;;;5010144;28;19952;-73
2022/12/12 13:36:01;;;;;;;;;;;;;;;;;;5026685;28;20011;-74
2022/12/12 13:38:27;;;;;;;;;;;;;;;;;;5026144;28;19952;-72
2022/12/12 13:40:52;;;;;;;;;;;;;;;;;;5027416;28;20364;-73
2022/12/12 13:43:18;;;;;;;;;;;;;;;;;;5023881;28;20379;-73
2022/12/12 13:45:44;;;;;;;;;;;;;;;;;;5022641;28;19948;-74
2022/12/12 13:48:10;;;;;;;;;;;;;;;;;;5022357;28;19913;-73
2022/12/12 13:50:35;;;;;;;;;;;;;;;;;;5020479;28;19963;-73
2022/12/12 13:53:01;;;;;;;;;;;;;;;;;;5021316;28;19913;-73
2022/12/12 13:55:27;;;;;;;;;;;;;;;;;;5022093;28;20401;-74
2022/12/12 13:57:52;;;;;;;;;;;;;;;;;;5019932;28;21319;-74
2022/12/12 14:00:18;;;;;;;;;;;;;;;;;;5016353;28;20732;-73
2022/12/12 14:02:44;;;;;;;;;;;;;;;;;;5009016;28;19967;-74
2022/12/12 14:05:10;;;;;;;;;;;;;;;;;;5021679;28;19973;-72
2022/12/12 14:07:36;;;;;;;;;;;;;;;;;;5023582;28;20004;-73
2022/12/12 14:10:02;;;;;;;;;;;;;;;;;;5029257;28;20467;-74
2022/12/12 14:12:32;;;;;;;;;;;;;;;;;;5010708;28;19913;-76
2022/12/12 14:14:58;;;;;;;;;;;;;;;;;;5029982;28;19919;-75
2022/12/12 14:17:23;;;;;;;;;;;;;;;;;;5029827;28;19917;-74
2022/12/12 14:19:49;;;;;;;;;;;;;;;;;;5029881;28;19964;-75
2022/12/12 14:22:15;;;;;;;;;;;;;;;;;;5029102;28;20004;-75
2022/12/12 14:24:41;;;;;;;;;;;;;;;;;;5029868;28;19913;-74
2022/12/12 14:27:07;;;;;;;;;;;;;;;;;;5030923;28;19955;-75
2022/12/12 14:29:32;;;;;;;;;;;;;;;;;;5027698;28;19935;-74
2022/12/12 14:31:58;;;;;;;;;;;;;;;;;;5029431;28;20381;-74
2022/12/12 14:34:23;;;;;;;;;;;;;;;;;;5025248;28;20451;-74
2022/12/12 14:36:50;;;;;;;;;;;;;;;;;;5030060;28;19925;-74
2022/12/12 14:39:15;;;;;;;;;;;;;;;;;;5028957;28;20028;-74
2022/12/12 14:41:41;;;;;;;;;;;;;;;;;;5011423;28;20012;-74
2022/12/12 14:44:07;;;;;;;;;;;;;;;;;;5028597;28;19909;-78
2022/12/12 14:46:32;;;;;;;;;;;;;;;;;;5025259;28;19967;-74
2022/12/12 14:48:58;;;;;;;;;;;;;;;;;;5008671;28;19913;-75
2022/12/12 14:51:24;;;;;;;;;;;;;;;;;;5028981;28;19913;-75
2022/12/12 14:53:49;;;;;;;;;;;;;;;;;;5029209;28;20003;-75
2022/12/12 14:56:15;;;;;;;;;;;;;;;;;;5019299;28;20032;-75
2022/12/12 14:58:41;;;;;;;;;;;;;;;;;;4996928;28;20020;-73
2022/12/12 15:01:06;;;;;;;;;;;;;;;;;;5008571;28;19913;-73
2022/12/12 15:03:32;;;;;;;;;;;;;;;;;;5009490;28;19914;-73
2022/12/12 15:05:58;;;;;;;;;;;;;;;;;;5009594;28;19913;-73
2022/12/12 15:08:24;;;;;;;;;;;;;;;;;;5009263;28;20055;-73
2022/12/12 15:10:50;;;;;;;;;;;;;;;;;;5017987;28;19913;-73
2022/12/12 15:13:19;;;;;;;;;;;;;;;;;;5029251;28;19917;-74
2022/12/12 15:15:45;;;;;;;;;;;;;;;;;;5028049;28;19927;-74
2022/12/12 15:18:11;;;;;;;;;;;;;;;;;;5009803;28;20011;-74
2022/12/12 15:20:36;;;;;;;;;;;;;;;;;;5028733;28;19917;-74
2022/12/12 15:23:02;;;;;;;;;;;;;;;;;;5028810;28;19921;-73
2022/12/12 15:25:27;;;;;;;;;;;;;;;;;;5028667;28;19948;-73
2022/12/12 15:27:53;;;;;;;;;;;;;;;;;;5027612;28;19996;-74
2022/12/12 15:30:19;;;;;;;;;;;;;;;;;;5027983;28;19982;-73
2022/12/12 15:32:45;;;;;;;;;;;;;;;;;;5028222;28;19913;-73
2022/12/12 15:35:10;;;;;;;;;;;;;;;;;;5027424;28;19928;-73
2022/12/12 15:37:36;;;;;;;;;;;;;;;;;;5006228;28;19948;-77
2022/12/12 15:40:02;;;;;;;;;;;;;;;;;;5027715;28;19913;-75
2022/12/12 15:42:28;;;;;;;;;;;;;;;;;;5009415;28;19912;-76
2022/12/12 15:44:54;;;;;;;;;;;;;;;;;;5018089;28;19926;-76
2022/12/12 15:47:20;;;;;;;;;;;;;;;;;;5022271;28;19913;-75
2022/12/12 15:49:46;;;;;;;;;;;;;;;;;;5026773;28;19917;-76
2022/12/12 15:52:11;;;;;;;;;;;;;;;;;;5008428;28;20431;-79
2022/12/12 15:54:37;;;;;;;;;;;;;;;;;;4992885;28;20007;-78
2022/12/12 15:57:03;;;;;;;;;;;;;;;;;;5001627;28;20283;-77
2022/12/12 15:59:28;;;;;;;;;;;;;;;;;;5005896;28;19917;-75
2022/12/12 16:01:54;;;;;;;;;;;;;;;;;;5002929;28;20510;-73
2022/12/12 16:04:20;;;;;;;;;;;;;;;;;;5026156;28;19920;-75
2022/12/12 16:06:45;;;;;;;;;;;;;;;;;;5027262;28;19917;-76
2022/12/12 16:09:11;;;;;;;;;;;;;;;;;;5024240;28;19912;-75
2022/12/12 16:11:37;;;;;;;;;;;;;;;;;;5024221;28;19912;-76
2022/12/12 16:14:02;;;;;;;;;;;;;;;;;;5025252;28;19924;-75
2022/12/12 16:16:28;;;;;;;;;;;;;;;;;;5007596;28;19921;-77
2022/12/12 16:18:57;;;;;;;;;;;;;;;;;;5026238;28;19995;-79
2022/12/12 16:21:25;;;;;;;;;;;;;;;;;;5008064;28;20439;-76
2022/12/12 16:23:51;;;;;;;;;;;;;;;;;;5026367;28;19947;-76
2022/12/12 16:26:17;;;;;;;;;;;;;;;;;;5023630;28;19913;-75
2022/12/12 16:28:45;;;;;;;;;;;;;;;;;;5009267;28;19913;-75
2022/12/12 16:31:11;;;;;;;;;;;;;;;;;;5027682;28;19917;-76
2022/12/12 16:33:37;;;;;;;;;;;;;;;;;;5009814;28;19921;-76
2022/12/12 16:36:03;;;;;;;;;;;;;;;;;;5027590;28;19921;-76
2022/12/12 16:38:28;;;;;;;;;;;;;;;;;;4993050;28;20416;-75
2022/12/12 16:40:54;;;;;;;;;;;;;;;;;;5027439;28;20416;-75
2022/12/12 16:43:20;;;;;;;;;;;;;;;;;;5027632;28;19917;-75
2022/12/12 16:45:45;;;;;;;;;;;;;;;;;;5024791;28;19924;-73
2022/12/12 16:48:11;;;;;;;;;;;;;;;;;;5027548;28;20024;-76
2022/12/12 16:50:39;;;;;;;;;;;;;;;;;;5010139;28;19913;-75
2022/12/12 16:53:08;;;;;;;;;;;;;;;;;;5027308;28;19913;-78